sensor_id;sensor_type;location;lat;lon;timestamp;P1;durP1;ratioP1;P2;durP2;ratioP2
26838;SDS011;40088;51.214;6.786;2023-05-10T00:00:14;2.05;;;1.85;;
26838;SDS011;40088;51.214;6.786;2023-05-10T00:10:15;2.47;;;2.13;;
26838;SDS011;40088;51.214;6.786;2023-05-10T00:20:15;2.08;;;1.88;;
26838;SDS011;40088;51.214;6.786;2023-05-10T00:30:16;2.20;;;2.00;;
26838;SDS011;40088;51.214;6.786;2023-05-10T00:40:16;2.73;;;2.47;;
26838;SDS011;40088;51.214;6.786;2023-05-10T00:50:17;2.58;;;2.30;;
26838;SDS011;40088;51.214;6.786;2023-05-10T01:00:18;2.50;;;2.30;;
26838;SDS011;40088;51.214;6.786;2023-05-10T01:10:19;3.05;;;2.28;;
26838;SDS011;40088;51.214;6.786;2023-05-10T01:20:20;2.90;;;2.20;;
26838;SDS011;40088;51.214;6.786;2023-05-10T01:40:30;2.53;;;2.33;;
26838;SDS011;40088;51.214;6.786;2023-05-10T01:50:48;2.88;;;2.42;;
26838;SDS011;40088;51.214;6.786;2023-05-10T02:00:51;3.67;;;2.47;;
26838;SDS011;40088;51.214;6.786;2023-05-10T02:10:53;3.13;;;2.40;;
26838;SDS011;40088;51.214;6.786;2023-05-10T02:20:55;3.17;;;2.88;;
26838;SDS011;40088;51.214;6.786;2023-05-10T02:30:57;2.70;;;2.22;;
26838;SDS011;40088;51.214;6.786;2023-05-10T02:40:58;3.20;;;2.30;;
26838;SDS011;40088;51.214;6.786;2023-05-10T02:51:00;2.65;;;2.22;;
26838;SDS011;40088;51.214;6.786;2023-05-10T03:01:05;3.25;;;2.22;;
26838;SDS011;40088;51.214;6.786;2023-05-10T03:11:11;2.53;;;2.22;;
26838;SDS011;40088;51.214;6.786;2023-05-10T03:21:15;4.03;;;2.13;;
26838;SDS011;40088;51.214;6.786;2023-05-10T03:31:18;4.63;;;2.40;;
26838;SDS011;40088;51.214;6.786;2023-05-10T03:41:19;2.93;;;2.33;;
26838;SDS011;40088;51.214;6.786;2023-05-10T03:51:20;3.03;;;2.20;;
26838;SDS011;40088;51.214;6.786;2023-05-10T04:01:20;2.67;;;1.90;;
26838;SDS011;40088;51.214;6.786;2023-05-10T04:11:21;2.53;;;2.22;;
26838;SDS011;40088;51.214;6.786;2023-05-10T04:21:21;2.42;;;2.22;;
26838;SDS011;40088;51.214;6.786;2023-05-10T04:31:22;4.05;;;2.47;;
26838;SDS011;40088;51.214;6.786;2023-05-10T04:41:22;4.00;;;2.85;;
26838;SDS011;40088;51.214;6.786;2023-05-10T04:51:22;3.22;;;2.80;;
26838;SDS011;40088;51.214;6.786;2023-05-10T05:01:23;3.42;;;3.00;;
26838;SDS011;40088;51.214;6.786;2023-05-10T05:11:23;4.35;;;3.55;;
26838;SDS011;40088;51.214;6.786;2023-05-10T05:21:23;3.85;;;3.33;;
26838;SDS011;40088;51.214;6.786;2023-05-10T05:31:25;5.47;;;4.22;;
26838;SDS011;40088;51.214;6.786;2023-05-10T05:41:25;5.72;;;3.90;;
26838;SDS011;40088;51.214;6.786;2023-05-10T05:51:25;5.75;;;4.47;;
26838;SDS011;40088;51.214;6.786;2023-05-10T06:01:26;4.80;;;4.03;;
26838;SDS011;40088;51.214;6.786;2023-05-10T06:11:26;7.53;;;4.13;;
26838;SDS011;40088;51.214;6.786;2023-05-10T06:21:26;6.40;;;4.35;;
26838;SDS011;40088;51.214;6.786;2023-05-10T06:31:27;5.50;;;4.07;;
26838;SDS011;40088;51.214;6.786;2023-05-10T06:41:27;6.88;;;4.07;;
26838;SDS011;40088;51.214;6.786;2023-05-10T06:51:27;6.25;;;4.20;;
26838;SDS011;40088;51.214;6.786;2023-05-10T07:01:28;6.07;;;4.00;;
26838;SDS011;40088;51.214;6.786;2023-05-10T07:11:28;6.80;;;4.72;;
26838;SDS011;40088;51.214;6.786;2023-05-10T07:21:29;6.82;;;4.80;;
26838;SDS011;40088;51.214;6.786;2023-05-10T07:31:29;6.32;;;4.72;;
26838;SDS011;40088;51.214;6.786;2023-05-10T07:41:29;6.25;;;4.93;;
26838;SDS011;40088;51.214;6.786;2023-05-10T07:51:29;10.40;;;5.43;;
26838;SDS011;40088;51.214;6.786;2023-05-10T08:01:30;7.45;;;5.05;;
26838;SDS011;40088;51.214;6.786;2023-05-10T08:11:34;9.25;;;4.85;;
26838;SDS011;40088;51.214;6.786;2023-05-10T08:21:35;6.67;;;5.27;;
26838;SDS011;40088;51.214;6.786;2023-05-10T08:31:35;9.25;;;6.10;;
26838;SDS011;40088;51.214;6.786;2023-05-10T08:41:36;11.40;;;7.38;;
26838;SDS011;40088;51.214;6.786;2023-05-10T08:51:40;11.13;;;7.87;;
26838;SDS011;40088;51.214;6.786;2023-05-10T09:01:44;12.68;;;8.73;;
26838;SDS011;40088;51.214;6.786;2023-05-10T09:11:45;11.38;;;8.80;;
26838;SDS011;40088;51.214;6.786;2023-05-10T09:21:46;12.60;;;9.40;;
26838;SDS011;40088;51.214;6.786;2023-05-10T09:31:50;14.88;;;9.43;;
26838;SDS011;40088;51.214;6.786;2023-05-10T09:41:51;13.43;;;9.65;;
26838;SDS011;40088;51.214;6.786;2023-05-10T10:02:06;13.27;;;9.63;;
26838;SDS011;40088;51.214;6.786;2023-05-10T10:12:06;11.07;;;8.35;;
26838;SDS011;40088;51.214;6.786;2023-05-10T10:22:06;10.75;;;8.65;;
26838;SDS011;40088;51.214;6.786;2023-05-10T10:32:27;14.57;;;8.93;;
26838;SDS011;40088;51.214;6.786;2023-05-10T10:42:44;13.55;;;9.68;;
26838;SDS011;40088;51.214;6.786;2023-05-10T10:52:46;12.57;;;9.50;;
26838;SDS011;40088;51.214;6.786;2023-05-10T11:23:32;13.27;;;7.57;;
26838;SDS011;40088;51.214;6.786;2023-05-10T11:33:51;11.32;;;7.88;;
26838;SDS011;40088;51.214;6.786;2023-05-10T11:43:53;10.50;;;7.25;;
26838;SDS011;40088;51.214;6.786;2023-05-10T11:53:55;13.13;;;9.57;;
26838;SDS011;40088;51.214;6.786;2023-05-10T12:03:57;12.50;;;10.07;;
26838;SDS011;40088;51.214;6.786;2023-05-10T12:13:59;9.57;;;8.43;;
26838;SDS011;40088;51.214;6.786;2023-05-10T12:24:01;10.68;;;7.88;;
26838;SDS011;40088;51.214;6.786;2023-05-10T12:34:02;9.73;;;7.47;;
26838;SDS011;40088;51.214;6.786;2023-05-10T12:44:02;10.32;;;7.40;;
26838;SDS011;40088;51.214;6.786;2023-05-10T12:54:03;9.95;;;7.93;;
26838;SDS011;40088;51.214;6.786;2023-05-10T13:04:03;9.88;;;8.25;;
26838;SDS011;40088;51.214;6.786;2023-05-10T13:14:03;10.80;;;8.65;;
26838;SDS011;40088;51.214;6.786;2023-05-10T13:24:04;9.50;;;7.88;;
26838;SDS011;40088;51.214;6.786;2023-05-10T13:34:05;8.82;;;7.82;;
26838;SDS011;40088;51.214;6.786;2023-05-10T13:44:06;8.35;;;7.28;;
26838;SDS011;40088;51.214;6.786;2023-05-10T13:54:06;9.15;;;7.72;;
26838;SDS011;40088;51.214;6.786;2023-05-10T14:04:07;8.70;;;7.78;;
26838;SDS011;40088;51.214;6.786;2023-05-10T14:14:10;7.97;;;6.77;;
26838;SDS011;40088;51.214;6.786;2023-05-10T14:24:10;8.63;;;6.93;;
26838;SDS011;40088;51.214;6.786;2023-05-10T14:34:10;7.90;;;7.10;;
26838;SDS011;40088;51.214;6.786;2023-05-10T14:44:11;7.95;;;7.15;;
26838;SDS011;40088;51.214;6.786;2023-05-10T14:54:11;8.80;;;7.45;;
26838;SDS011;40088;51.214;6.786;2023-05-10T15:04:11;8.63;;;7.70;;
26838;SDS011;40088;51.214;6.786;2023-05-10T15:14:13;8.30;;;7.28;;
26838;SDS011;40088;51.214;6.786;2023-05-10T15:24:13;8.60;;;7.70;;
26838;SDS011;40088;51.214;6.786;2023-05-10T15:34:14;9.23;;;7.47;;
26838;SDS011;40088;51.214;6.786;2023-05-10T15:44:15;9.13;;;6.95;;
26838;SDS011;40088;51.214;6.786;2023-05-10T15:54:15;6.22;;;5.63;;
26838;SDS011;40088;51.214;6.786;2023-05-10T16:04:16;6.35;;;5.70;;
26838;SDS011;40088;51.214;6.786;2023-05-10T16:14:17;6.80;;;6.15;;
26838;SDS011;40088;51.214;6.786;2023-05-10T16:24:17;7.07;;;5.28;;
26838;SDS011;40088;51.214;6.786;2023-05-10T16:34:17;6.97;;;5.65;;
26838;SDS011;40088;51.214;6.786;2023-05-10T16:44:23;6.13;;;5.38;;
26838;SDS011;40088;51.214;6.786;2023-05-10T16:54:23;7.32;;;6.45;;
26838;SDS011;40088;51.214;6.786;2023-05-10T17:04:23;7.82;;;5.43;;
26838;SDS011;40088;51.214;6.786;2023-05-10T17:14:23;4.97;;;4.47;;
26838;SDS011;40088;51.214;6.786;2023-05-10T17:24:24;3.85;;;3.55;;
26838;SDS011;40088;51.214;6.786;2023-05-10T17:34:27;4.27;;;3.63;;
26838;SDS011;40088;51.214;6.786;2023-05-10T17:44:27;4.75;;;3.65;;
26838;SDS011;40088;51.214;6.786;2023-05-10T17:54:27;4.15;;;3.33;;
26838;SDS011;40088;51.214;6.786;2023-05-10T18:04:27;5.05;;;3.25;;
26838;SDS011;40088;51.214;6.786;2023-05-10T18:14:28;3.95;;;3.00;;
26838;SDS011;40088;51.214;6.786;2023-05-10T18:24:28;4.90;;;3.50;;
26838;SDS011;40088;51.214;6.786;2023-05-10T18:34:28;3.05;;;2.75;;
26838;SDS011;40088;51.214;6.786;2023-05-10T18:44:28;3.28;;;2.63;;
26838;SDS011;40088;51.214;6.786;2023-05-10T18:54:29;3.40;;;3.08;;
26838;SDS011;40088;51.214;6.786;2023-05-10T19:04:29;3.25;;;2.88;;
26838;SDS011;40088;51.214;6.786;2023-05-10T19:14:30;3.58;;;2.60;;
26838;SDS011;40088;51.214;6.786;2023-05-10T19:24:31;3.40;;;2.65;;
26838;SDS011;40088;51.214;6.786;2023-05-10T19:34:32;2.85;;;2.50;;
26838;SDS011;40088;51.214;6.786;2023-05-10T19:44:32;2.75;;;2.47;;
26838;SDS011;40088;51.214;6.786;2023-05-10T19:54:32;3.05;;;2.58;;
26838;SDS011;40088;51.214;6.786;2023-05-10T20:04:32;2.75;;;2.50;;
26838;SDS011;40088;51.214;6.786;2023-05-10T20:14:33;3.03;;;2.40;;
26838;SDS011;40088;51.214;6.786;2023-05-10T20:24:33;2.65;;;2.42;;
26838;SDS011;40088;51.214;6.786;2023-05-10T20:34:35;3.45;;;2.30;;
26838;SDS011;40088;51.214;6.786;2023-05-10T20:44:35;2.58;;;2.30;;
26838;SDS011;40088;51.214;6.786;2023-05-10T20:54:36;3.60;;;2.83;;
26838;SDS011;40088;51.214;6.786;2023-05-10T21:04:36;2.47;;;2.28;;
26838;SDS011;40088;51.214;6.786;2023-05-10T21:14:36;3.30;;;2.70;;
26838;SDS011;40088;51.214;6.786;2023-05-10T21:24:37;3.20;;;2.63;;
26838;SDS011;40088;51.214;6.786;2023-05-10T21:34:37;2.92;;;2.60;;
26838;SDS011;40088;51.214;6.786;2023-05-10T21:44:37;2.85;;;2.58;;
26838;SDS011;40088;51.214;6.786;2023-05-10T21:54:38;3.90;;;3.05;;
26838;SDS011;40088;51.214;6.786;2023-05-10T22:04:38;3.78;;;3.10;;
26838;SDS011;40088;51.214;6.786;2023-05-10T22:14:38;3.95;;;3.10;;
26838;SDS011;40088;51.214;6.786;2023-05-10T22:24:39;3.80;;;2.97;;
26838;SDS011;40088;51.214;6.786;2023-05-10T22:34:39;3.88;;;3.20;;
26838;SDS011;40088;51.214;6.786;2023-05-10T22:44:42;4.47;;;3.23;;
26838;SDS011;40088;51.214;6.786;2023-05-10T22:54:43;4.68;;;3.15;;
26838;SDS011;40088;51.214;6.786;2023-05-10T23:04:43;4.13;;;3.15;;
26838;SDS011;40088;51.214;6.786;2023-05-10T23:14:43;6.05;;;3.28;;
26838;SDS011;40088;51.214;6.786;2023-05-10T23:34:47;3.83;;;3.42;;
26838;SDS011;40088;51.214;6.786;2023-05-10T23:44:49;4.68;;;3.80;;
26838;SDS011;40088;51.214;6.786;2023-05-10T23:54:50;4.18;;;3.70;;
